sensor_id;sensor_type;location;lat;lon;timestamp;pressure;altitude;pressure_sealevel;temperature;humidity
29433;BME280;16405;53.964;13.448;2023-05-12T00:01:37;101587.94;;;12.37;60.31
29433;BME280;16405;53.964;13.448;2023-05-12T00:04:04;101584.41;;;12.38;59.39
29433;BME280;16405;53.964;13.448;2023-05-12T00:06:30;101589.75;;;12.37;59.48
29433;BME280;16405;53.964;13.448;2023-05-12T00:08:56;101582.81;;;12.34;60.04
29433;BME280;16405;53.964;13.448;2023-05-12T00:11:21;101573.66;;;12.21;60.06
29433;BME280;16405;53.964;13.448;2023-05-12T00:13:47;101574.75;;;12.15;60.63
29433;BME280;16405;53.964;13.448;2023-05-12T00:16:13;101576.59;;;12.13;60.71
29433;BME280;16405;53.964;13.448;2023-05-12T00:18:40;101574.13;;;12.08;60.71
29433;BME280;16405;53.964;13.448;2023-05-12T00:21:06;101579.66;;;12.02;60.86
29433;BME280;16405;53.964;13.448;2023-05-12T00:23:33;101575.59;;;11.94;60.81
29433;BME280;16405;53.964;13.448;2023-05-12T00:25:59;101579.41;;;11.85;61.43
29433;BME280;16405;53.964;13.448;2023-05-12T00:28:25;101578.84;;;11.77;61.84
29433;BME280;16405;53.964;13.448;2023-05-12T00:30:50;101572.34;;;11.62;62.29
29433;BME280;16405;53.964;13.448;2023-05-12T00:33:16;101571.91;;;11.50;62.40
29433;BME280;16405;53.964;13.448;2023-05-12T00:35:42;101572.22;;;11.43;62.46
29433;BME280;16405;53.964;13.448;2023-05-12T00:38:11;101577.91;;;11.31;63.04
29433;BME280;16405;53.964;13.448;2023-05-12T00:40:37;101572.06;;;11.22;62.58
29433;BME280;16405;53.964;13.448;2023-05-12T00:43:03;101567.97;;;11.14;62.74
29433;BME280;16405;53.964;13.448;2023-05-12T00:45:29;101564.91;;;11.01;63.73
29433;BME280;16405;53.964;13.448;2023-05-12T00:47:56;101566.84;;;10.96;63.30
29433;BME280;16405;53.964;13.448;2023-05-12T00:50:22;101573.34;;;10.85;63.09
29433;BME280;16405;53.964;13.448;2023-05-12T00:52:49;101564.75;;;10.80;63.64
29433;BME280;16405;53.964;13.448;2023-05-12T00:55:15;101563.94;;;10.78;63.32
29433;BME280;16405;53.964;13.448;2023-05-12T00:57:42;101565.03;;;10.71;63.38
29433;BME280;16405;53.964;13.448;2023-05-12T01:00:08;101569.59;;;10.66;63.05
29433;BME280;16405;53.964;13.448;2023-05-12T01:02:35;101570.78;;;10.57;63.13
29433;BME280;16405;53.964;13.448;2023-05-12T01:05:02;101570.13;;;10.51;63.60
29433;BME280;16405;53.964;13.448;2023-05-12T01:07:31;101569.47;;;10.44;63.44
29433;BME280;16405;53.964;13.448;2023-05-12T01:09:58;101571.31;;;10.40;63.91
29433;BME280;16405;53.964;13.448;2023-05-12T01:12:25;101567.13;;;10.35;63.66
29433;BME280;16405;53.964;13.448;2023-05-12T01:14:53;101576.03;;;10.31;63.86
29433;BME280;16405;53.964;13.448;2023-05-12T01:17:26;101570.88;;;10.26;63.88
29433;BME280;16405;53.964;13.448;2023-05-12T01:19:59;101562.25;;;10.21;63.93
29433;BME280;16405;53.964;13.448;2023-05-12T01:22:28;101566.78;;;10.17;63.99
29433;BME280;16405;53.964;13.448;2023-05-12T01:25:04;101561.75;;;10.10;63.86
29433;BME280;16405;53.964;13.448;2023-05-12T01:27:32;101569.94;;;10.00;64.45
29433;BME280;16405;53.964;13.448;2023-05-12T01:30:02;101560.44;;;9.95;64.27
29433;BME280;16405;53.964;13.448;2023-05-12T01:32:28;101564.03;;;9.92;64.05
29433;BME280;16405;53.964;13.448;2023-05-12T01:34:55;101558.84;;;9.89;64.15
29433;BME280;16405;53.964;13.448;2023-05-12T01:37:21;101565.97;;;9.87;63.99
29433;BME280;16405;53.964;13.448;2023-05-12T01:39:48;101577.38;;;9.86;64.72
29433;BME280;16405;53.964;13.448;2023-05-12T01:42:14;101562.50;;;9.85;64.90
29433;BME280;16405;53.964;13.448;2023-05-12T01:44:40;101563.44;;;9.82;64.36
29433;BME280;16405;53.964;13.448;2023-05-12T01:47:06;101554.66;;;9.83;64.51
29433;BME280;16405;53.964;13.448;2023-05-12T01:49:34;101558.25;;;9.81;64.57
29433;BME280;16405;53.964;13.448;2023-05-12T01:52:00;101560.94;;;9.78;64.62
29433;BME280;16405;53.964;13.448;2023-05-12T01:54:26;101558.38;;;9.76;64.74
29433;BME280;16405;53.964;13.448;2023-05-12T01:56:52;101558.44;;;9.75;64.36
29433;BME280;16405;53.964;13.448;2023-05-12T01:59:17;101563.00;;;9.68;64.95
29433;BME280;16405;53.964;13.448;2023-05-12T02:01:43;101568.34;;;9.65;65.03
29433;BME280;16405;53.964;13.448;2023-05-12T02:04:09;101569.28;;;9.62;64.85
29433;BME280;16405;53.964;13.448;2023-05-12T02:06:36;101564.19;;;9.58;65.33
29433;BME280;16405;53.964;13.448;2023-05-12T02:09:02;101569.56;;;9.53;65.37
29433;BME280;16405;53.964;13.448;2023-05-12T02:11:28;101569.66;;;9.50;65.10
29433;BME280;16405;53.964;13.448;2023-05-12T02:13:54;101565.50;;;9.41;65.62
29433;BME280;16405;53.964;13.448;2023-05-12T02:16:20;101554.31;;;9.35;65.30
29433;BME280;16405;53.964;13.448;2023-05-12T02:18:45;101560.53;;;9.32;65.37
29433;BME280;16405;53.964;13.448;2023-05-12T02:21:11;101558.94;;;9.27;65.51
29433;BME280;16405;53.964;13.448;2023-05-12T02:23:37;101561.66;;;9.22;65.70
29433;BME280;16405;53.964;13.448;2023-05-12T02:26:03;101564.38;;;9.20;66.26
29433;BME280;16405;53.964;13.448;2023-05-12T02:28:28;101561.88;;;9.16;65.87
29433;BME280;16405;53.964;13.448;2023-05-12T02:30:54;101564.53;;;9.14;66.09
29433;BME280;16405;53.964;13.448;2023-05-12T02:33:20;101566.34;;;9.12;66.12
29433;BME280;16405;53.964;13.448;2023-05-12T02:35:47;101568.13;;;9.10;66.23
29433;BME280;16405;53.964;13.448;2023-05-12T02:38:13;101568.31;;;9.04;66.11
29433;BME280;16405;53.964;13.448;2023-05-12T02:40:39;101570.13;;;9.00;65.83
29433;BME280;16405;53.964;13.448;2023-05-12T02:43:05;101566.66;;;9.00;65.59
29433;BME280;16405;53.964;13.448;2023-05-12T02:45:31;101569.28;;;9.00;65.78
29433;BME280;16405;53.964;13.448;2023-05-12T02:47:57;101567.69;;;8.94;66.16
29433;BME280;16405;53.964;13.448;2023-05-12T02:50:23;101572.25;;;8.88;65.78
29433;BME280;16405;53.964;13.448;2023-05-12T02:52:49;101571.50;;;8.81;65.69
29433;BME280;16405;53.964;13.448;2023-05-12T02:55:15;101567.38;;;8.72;66.12
29433;BME280;16405;53.964;13.448;2023-05-12T02:57:42;101569.13;;;8.72;66.03
29433;BME280;16405;53.964;13.448;2023-05-12T03:00:09;101577.00;;;8.72;66.22
29433;BME280;16405;53.964;13.448;2023-05-12T03:02:37;101584.91;;;8.70;66.35
29433;BME280;16405;53.964;13.448;2023-05-12T03:05:04;101578.78;;;8.71;66.29
29433;BME280;16405;53.964;13.448;2023-05-12T03:07:30;101581.41;;;8.71;66.65
29433;BME280;16405;53.964;13.448;2023-05-12T03:09:57;101578.03;;;8.66;66.70
29433;BME280;16405;53.964;13.448;2023-05-12T03:12:23;101569.53;;;8.56;67.02
29433;BME280;16405;53.964;13.448;2023-05-12T03:14:49;101577.53;;;8.50;67.59
29433;BME280;16405;53.964;13.448;2023-05-12T03:17:16;101572.50;;;8.43;67.51
29433;BME280;16405;53.964;13.448;2023-05-12T03:19:42;101580.41;;;8.38;67.68
29433;BME280;16405;53.964;13.448;2023-05-12T03:22:08;101573.63;;;8.29;68.77
29433;BME280;16405;53.964;13.448;2023-05-12T03:24:34;101581.56;;;8.28;69.16
29433;BME280;16405;53.964;13.448;2023-05-12T03:27:01;101589.47;;;8.26;68.64
29433;BME280;16405;53.964;13.448;2023-05-12T03:29:26;101589.47;;;8.26;69.05
29433;BME280;16405;53.964;13.448;2023-05-12T03:31:52;101593.88;;;8.24;70.05
29433;BME280;16405;53.964;13.448;2023-05-12T03:34:18;101594.56;;;8.32;69.50
29433;BME280;16405;53.964;13.448;2023-05-12T03:36:44;101604.09;;;8.36;69.90
29433;BME280;16405;53.964;13.448;2023-05-12T03:39:11;101608.53;;;8.34;70.16
29433;BME280;16405;53.964;13.448;2023-05-12T03:41:37;101601.69;;;8.27;70.88
29433;BME280;16405;53.964;13.448;2023-05-12T03:44:04;101604.34;;;8.26;71.18
29433;BME280;16405;53.964;13.448;2023-05-12T03:46:33;101606.97;;;8.26;71.41
29433;BME280;16405;53.964;13.448;2023-05-12T03:49:00;101617.44;;;8.27;71.75
29433;BME280;16405;53.964;13.448;2023-05-12T03:51:26;101618.19;;;8.32;72.91
29433;BME280;16405;53.964;13.448;2023-05-12T03:53:55;101626.69;;;8.44;72.16
29433;BME280;16405;53.964;13.448;2023-05-12T03:56:21;101619.44;;;8.55;72.49
29433;BME280;16405;53.964;13.448;2023-05-12T03:58:47;101633.06;;;8.71;72.81
29433;BME280;16405;53.964;13.448;2023-05-12T04:01:13;101629.16;;;8.87;72.46
29433;BME280;16405;53.964;13.448;2023-05-12T04:03:39;101644.63;;;9.95;71.28
29433;BME280;16405;53.964;13.448;2023-05-12T04:06:08;101664.06;;;12.04;67.84
29433;BME280;16405;53.964;13.448;2023-05-12T04:08:34;101685.00;;;14.01;62.30
29433;BME280;16405;53.964;13.448;2023-05-12T04:11:00;101684.91;;;15.65;56.92
29433;BME280;16405;53.964;13.448;2023-05-12T04:13:28;101705.91;;;17.30;53.19
29433;BME280;16405;53.964;13.448;2023-05-12T04:15:55;101728.66;;;18.65;49.79
29433;BME280;16405;53.964;13.448;2023-05-12T04:18:21;101741.25;;;19.57;47.17
29433;BME280;16405;53.964;13.448;2023-05-12T04:20:47;101748.63;;;20.43;45.14
29433;BME280;16405;53.964;13.448;2023-05-12T04:23:13;101751.81;;;21.09;43.71
29433;BME280;16405;53.964;13.448;2023-05-12T04:25:41;101771.41;;;21.69;42.30
29433;BME280;16405;53.964;13.448;2023-05-12T04:28:08;101780.38;;;22.60;40.87
29433;BME280;16405;53.964;13.448;2023-05-12T04:30:35;101801.28;;;23.76;39.45
29433;BME280;16405;53.964;13.448;2023-05-12T04:33:03;101808.44;;;24.89;38.03
29433;BME280;16405;53.964;13.448;2023-05-12T04:35:29;101812.91;;;25.38;36.08
29433;BME280;16405;53.964;13.448;2023-05-12T04:37:54;101810.44;;;25.16;35.19
29433;BME280;16405;53.964;13.448;2023-05-12T04:40:20;101827.78;;;25.52;35.27
29433;BME280;16405;53.964;13.448;2023-05-12T04:42:46;101850.47;;;26.46;33.76
29433;BME280;16405;53.964;13.448;2023-05-12T04:45:12;101850.41;;;26.93;33.41
29433;BME280;16405;53.964;13.448;2023-05-12T04:47:38;101863.41;;;27.35;32.93
29433;BME280;16405;53.964;13.448;2023-05-12T04:50:04;101886.56;;;28.43;31.69
29433;BME280;16405;53.964;13.448;2023-05-12T04:52:30;101888.28;;;29.21;31.13
29433;BME280;16405;53.964;13.448;2023-05-12T04:54:56;101897.88;;;29.75;30.20
29433;BME280;16405;53.964;13.448;2023-05-12T04:57:22;101898.84;;;30.39;29.27
29433;BME280;16405;53.964;13.448;2023-05-12T04:59:48;101910.88;;;31.32;28.59
29433;BME280;16405;53.964;13.448;2023-05-12T05:02:13;101925.88;;;31.97;27.90
29433;BME280;16405;53.964;13.448;2023-05-12T05:04:39;101931.50;;;32.19;26.70
29433;BME280;16405;53.964;13.448;2023-05-12T05:07:05;101940.94;;;32.76;26.35
29433;BME280;16405;53.964;13.448;2023-05-12T05:09:31;101943.75;;;32.82;26.01
29433;BME280;16405;53.964;13.448;2023-05-12T05:11:57;101958.53;;;32.73;26.57
29433;BME280;16405;53.964;13.448;2023-05-12T05:14:22;101959.00;;;32.09;26.10
29433;BME280;16405;53.964;13.448;2023-05-12T05:16:48;101971.19;;;32.36;26.50
29433;BME280;16405;53.964;13.448;2023-05-12T05:19:15;101971.41;;;31.88;26.34
29433;BME280;16405;53.964;13.448;2023-05-12T05:21:41;101979.09;;;31.85;26.24
29433;BME280;16405;53.964;13.448;2023-05-12T05:24:07;101998.28;;;32.53;25.88
29433;BME280;16405;53.964;13.448;2023-05-12T05:26:34;102009.94;;;32.61;25.41
29433;BME280;16405;53.964;13.448;2023-05-12T05:29:05;102018.19;;;34.15;24.41
29433;BME280;16405;53.964;13.448;2023-05-12T05:31:32;102030.47;;;34.04;24.48
29433;BME280;16405;53.964;13.448;2023-05-12T05:33:58;102019.75;;;34.24;24.10
29433;BME280;16405;53.964;13.448;2023-05-12T05:36:24;102032.34;;;34.04;23.67
29433;BME280;16405;53.964;13.448;2023-05-12T05:38:52;102032.91;;;34.14;23.53
29433;BME280;16405;53.964;13.448;2023-05-12T05:41:18;102036.25;;;34.38;23.60
29433;BME280;16405;53.964;13.448;2023-05-12T05:43:44;102046.97;;;34.89;23.23
29433;BME280;16405;53.964;13.448;2023-05-12T05:46:10;102061.56;;;35.44;22.39
29433;BME280;16405;53.964;13.448;2023-05-12T05:48:35;102059.59;;;35.66;22.83
29433;BME280;16405;53.964;13.448;2023-05-12T05:51:01;102058.00;;;34.74;22.56
29433;BME280;16405;53.964;13.448;2023-05-12T05:53:27;102046.75;;;33.40;24.15
29433;BME280;16405;53.964;13.448;2023-05-12T05:55:53;102038.66;;;33.83;23.86
29433;BME280;16405;53.964;13.448;2023-05-12T05:58:19;102034.59;;;33.42;23.65
29433;BME280;16405;53.964;13.448;2023-05-12T06:00:45;102027.69;;;33.10;23.27
29433;BME280;16405;53.964;13.448;2023-05-12T06:03:11;102020.88;;;32.91;23.93
29433;BME280;16405;53.964;13.448;2023-05-12T06:05:37;102026.53;;;33.34;23.70
29433;BME280;16405;53.964;13.448;2023-05-12T06:08:03;102037.31;;;33.57;23.53
29433;BME280;16405;53.964;13.448;2023-05-12T06:10:30;102022.03;;;32.97;24.09
29433;BME280;16405;53.964;13.448;2023-05-12T06:12:56;102022.03;;;32.97;23.83
29433;BME280;16405;53.964;13.448;2023-05-12T06:15:21;102020.03;;;32.76;23.73
29433;BME280;16405;53.964;13.448;2023-05-12T06:17:47;102029.25;;;33.19;23.67
29433;BME280;16405;53.964;13.448;2023-05-12T06:20:13;102026.19;;;33.22;24.01
29433;BME280;16405;53.964;13.448;2023-05-12T06:22:39;102036.91;;;33.09;24.02
29433;BME280;16405;53.964;13.448;2023-05-12T06:25:09;102029.28;;;32.89;24.04
29433;BME280;16405;53.964;13.448;2023-05-12T06:27:35;102015.47;;;32.15;24.96
29433;BME280;16405;53.964;13.448;2023-05-12T06:30:01;102020.91;;;32.38;24.73
29433;BME280;16405;53.964;13.448;2023-05-12T06:32:27;102019.59;;;32.11;25.28
29433;BME280;16405;53.964;13.448;2023-05-12T06:34:52;102014.66;;;31.60;25.49
29433;BME280;16405;53.964;13.448;2023-05-12T06:37:18;102029.94;;;32.77;24.94
29433;BME280;16405;53.964;13.448;2023-05-12T06:39:46;102040.25;;;33.41;24.13
29433;BME280;16405;53.964;13.448;2023-05-12T06:42:12;102028.59;;;32.73;24.47
29433;BME280;16405;53.964;13.448;2023-05-12T06:44:38;102031.78;;;32.91;24.60
29433;BME280;16405;53.964;13.448;2023-05-12T06:47:04;102014.47;;;31.85;25.92
29433;BME280;16405;53.964;13.448;2023-05-12T06:49:30;102021.91;;;32.60;25.48
29433;BME280;16405;53.964;13.448;2023-05-12T06:51:57;102034.19;;;33.09;24.85
29433;BME280;16405;53.964;13.448;2023-05-12T06:54:22;102039.66;;;33.60;24.33
29433;BME280;16405;53.964;13.448;2023-05-12T06:56:48;102045.19;;;33.52;23.74
29433;BME280;16405;53.964;13.448;2023-05-12T06:59:14;102028.69;;;33.24;24.22
29433;BME280;16405;53.964;13.448;2023-05-12T07:01:40;102031.44;;;32.79;24.58
29433;BME280;16405;53.964;13.448;2023-05-12T07:04:07;102011.00;;;31.45;25.38
29433;BME280;16405;53.964;13.448;2023-05-12T07:06:33;102015.72;;;32.43;25.64
29433;BME280;16405;53.964;13.448;2023-05-12T07:08:59;102023.28;;;33.09;25.28
29433;BME280;16405;53.964;13.448;2023-05-12T07:11:25;102026.38;;;33.72;25.31
29433;BME280;16405;53.964;13.448;2023-05-12T07:13:51;102027.63;;;33.91;24.41
29433;BME280;16405;53.964;13.448;2023-05-12T07:16:18;102016.66;;;33.03;25.05
29433;BME280;16405;53.964;13.448;2023-05-12T07:18:44;102000.69;;;31.63;26.37
29433;BME280;16405;53.964;13.448;2023-05-12T07:21:11;102007.34;;;32.53;25.48
29433;BME280;16405;53.964;13.448;2023-05-12T07:23:37;102004.97;;;32.65;25.42
29433;BME280;16405;53.964;13.448;2023-05-12T07:26:05;101991.44;;;32.57;25.82
29433;BME280;16405;53.964;13.448;2023-05-12T07:28:34;102007.44;;;32.89;25.50
29433;BME280;16405;53.964;13.448;2023-05-12T07:31:02;101999.81;;;32.85;25.85
29433;BME280;16405;53.964;13.448;2023-05-12T07:33:29;101992.06;;;32.06;25.90
29433;BME280;16405;53.964;13.448;2023-05-12T07:35:55;101979.25;;;31.83;26.77
29433;BME280;16405;53.964;13.448;2023-05-12T07:38:21;101979.50;;;31.74;26.50
29433;BME280;16405;53.964;13.448;2023-05-12T07:40:48;101989.16;;;32.07;26.05
29433;BME280;16405;53.964;13.448;2023-05-12T07:43:13;101952.34;;;29.81;27.85
29433;BME280;16405;53.964;13.448;2023-05-12T07:45:39;101949.97;;;29.70;28.23
29433;BME280;16405;53.964;13.448;2023-05-12T07:48:05;101937.63;;;28.30;29.23
29433;BME280;16405;53.964;13.448;2023-05-12T07:50:31;101927.75;;;28.03;30.30
29433;BME280;16405;53.964;13.448;2023-05-12T07:52:57;101936.16;;;29.04;29.11
29433;BME280;16405;53.964;13.448;2023-05-12T07:55:23;101933.09;;;29.42;29.47
29433;BME280;16405;53.964;13.448;2023-05-12T07:57:50;101930.31;;;28.83;29.25
29433;BME280;16405;53.964;13.448;2023-05-12T08:00:16;101913.09;;;28.32;29.41
29433;BME280;16405;53.964;13.448;2023-05-12T08:02:43;101902.97;;;27.90;29.88
29433;BME280;16405;53.964;13.448;2023-05-12T08:05:09;101911.59;;;28.11;29.60
29433;BME280;16405;53.964;13.448;2023-05-12T08:07:37;101903.56;;;28.01;29.71
29433;BME280;16405;53.964;13.448;2023-05-12T08:10:06;101890.06;;;27.66;31.13
29433;BME280;16405;53.964;13.448;2023-05-12T08:12:32;101902.34;;;27.96;30.05
29433;BME280;16405;53.964;13.448;2023-05-12T08:14:58;101883.25;;;26.98;31.05
29433;BME280;16405;53.964;13.448;2023-05-12T08:17:24;101878.78;;;26.79;31.02
29433;BME280;16405;53.964;13.448;2023-05-12T08:19:50;101876.69;;;26.35;31.75
29433;BME280;16405;53.964;13.448;2023-05-12T08:22:16;101873.91;;;26.55;32.42
29433;BME280;16405;53.964;13.448;2023-05-12T08:24:42;101868.06;;;26.22;33.12
29433;BME280;16405;53.964;13.448;2023-05-12T08:27:08;101852.53;;;25.07;32.98
29433;BME280;16405;53.964;13.448;2023-05-12T08:29:33;101841.38;;;24.62;33.74
29433;BME280;16405;53.964;13.448;2023-05-12T08:31:59;101850.56;;;24.59;34.29
29433;BME280;16405;53.964;13.448;2023-05-12T08:34:25;101839.81;;;24.59;34.14
29433;BME280;16405;53.964;13.448;2023-05-12T08:36:52;101833.03;;;23.71;34.52
29433;BME280;16405;53.964;13.448;2023-05-12T08:39:19;101826.31;;;23.44;35.18
29433;BME280;16405;53.964;13.448;2023-05-12T08:44:59;101813.16;;;23.09;37.69
29433;BME280;16405;53.964;13.448;2023-05-12T08:47:25;101794.06;;;22.23;36.54
29433;BME280;16405;53.964;13.448;2023-05-12T08:49:59;101801.94;;;22.13;38.16
29433;BME280;16405;53.964;13.448;2023-05-12T08:52:32;101804.91;;;22.44;37.70
29433;BME280;16405;53.964;13.448;2023-05-12T08:54:59;101798.84;;;21.73;38.50
29433;BME280;16405;53.964;13.448;2023-05-12T08:57:26;101793.47;;;21.73;38.46
29433;BME280;16405;53.964;13.448;2023-05-12T08:59:56;101796.38;;;22.39;38.60
29433;BME280;16405;53.964;13.448;2023-05-12T09:02:24;101793.19;;;22.57;38.34
29433;BME280;16405;53.964;13.448;2023-05-12T09:04:51;101804.91;;;22.56;38.50
29433;BME280;16405;53.964;13.448;2023-05-12T09:07:20;101802.31;;;22.65;37.84
29433;BME280;16405;53.964;13.448;2023-05-12T09:09:56;101794.72;;;22.03;38.98
29433;BME280;16405;53.964;13.448;2023-05-12T09:12:25;101795.25;;;22.42;38.98
29433;BME280;16405;53.964;13.448;2023-05-12T09:15:06;101792.56;;;22.64;39.52
29433;BME280;16405;53.964;13.448;2023-05-12T09:17:35;101802.44;;;22.52;38.49
29433;BME280;16405;53.964;13.448;2023-05-12T09:20:05;101794.44;;;22.30;39.82
29433;BME280;16405;53.964;13.448;2023-05-12T09:22:35;101796.47;;;22.15;39.44
29433;BME280;16405;53.964;13.448;2023-05-12T09:25:17;101788.16;;;22.07;38.62
29433;BME280;16405;53.964;13.448;2023-05-12T09:27:52;101794.78;;;22.59;39.94
29433;BME280;16405;53.964;13.448;2023-05-12T09:30:29;101790.63;;;22.32;39.03
29433;BME280;16405;53.964;13.448;2023-05-12T09:33:12;101796.22;;;22.75;39.82
29433;BME280;16405;53.964;13.448;2023-05-12T09:35:44;101793.03;;;22.81;39.20
29433;BME280;16405;53.964;13.448;2023-05-12T09:38:12;101791.25;;;22.70;39.33
29433;BME280;16405;53.964;13.448;2023-05-12T09:40:39;101801.59;;;22.75;39.21
29433;BME280;16405;53.964;13.448;2023-05-12T09:43:06;101799.38;;;22.80;40.15
29433;BME280;16405;53.964;13.448;2023-05-12T09:45:34;101808.56;;;22.66;39.51
29433;BME280;16405;53.964;13.448;2023-05-12T09:48:10;101794.53;;;22.28;39.72
29433;BME280;16405;53.964;13.448;2023-05-12T09:50:47;101790.53;;;22.34;40.53
29433;BME280;16405;53.964;13.448;2023-05-12T09:53:14;101789.41;;;22.37;40.64
29433;BME280;16405;53.964;13.448;2023-05-12T09:55:43;101785.63;;;22.17;40.46
29433;BME280;16405;53.964;13.448;2023-05-12T09:58:10;101780.72;;;22.22;40.30
29433;BME280;16405;53.964;13.448;2023-05-12T10:00:39;101782.84;;;22.29;40.29
29433;BME280;16405;53.964;13.448;2023-05-12T10:03:14;101776.69;;;21.94;40.77
29433;BME280;16405;53.964;13.448;2023-05-12T10:05:53;101774.38;;;22.00;40.42
29433;BME280;16405;53.964;13.448;2023-05-12T10:08:32;101777.53;;;21.94;41.69
29433;BME280;16405;53.964;13.448;2023-05-12T10:10:59;101773.28;;;21.91;41.93
29433;BME280;16405;53.964;13.448;2023-05-12T10:13:29;101770.97;;;21.98;40.78
29433;BME280;16405;53.964;13.448;2023-05-12T10:15:57;101780.00;;;21.97;41.30
29433;BME280;16405;53.964;13.448;2023-05-12T10:18:24;101777.22;;;22.32;40.96
29433;BME280;16405;53.964;13.448;2023-05-12T10:20:54;101788.91;;;22.77;39.83
29433;BME280;16405;53.964;13.448;2023-05-12T10:23:24;101789.41;;;22.70;39.31
29433;BME280;16405;53.964;13.448;2023-05-12T10:25:54;101790.28;;;22.48;39.55
29433;BME280;16405;53.964;13.448;2023-05-12T10:28:29;101786.97;;;22.56;39.89
29433;BME280;16405;53.964;13.448;2023-05-12T10:30:59;101785.50;;;22.52;40.09
29433;BME280;16405;53.964;13.448;2023-05-12T10:33:28;101780.63;;;22.46;39.85
29433;BME280;16405;53.964;13.448;2023-05-12T10:35:54;101785.47;;;22.63;39.18
29433;BME280;16405;53.964;13.448;2023-05-12T10:38:20;101792.56;;;22.42;39.64
29433;BME280;16405;53.964;13.448;2023-05-12T10:41:01;101785.38;;;22.53;38.95
29433;BME280;16405;53.964;13.448;2023-05-12T10:43:40;101796.59;;;22.70;38.30
29433;BME280;16405;53.964;13.448;2023-05-12T10:46:14;101791.97;;;22.61;38.49
29433;BME280;16405;53.964;13.448;2023-05-12T10:54:23;101785.88;;;22.70;38.59
29433;BME280;16405;53.964;13.448;2023-05-12T10:56:56;101786.22;;;22.54;38.39
29433;BME280;16405;53.964;13.448;2023-05-12T10:59:24;101776.94;;;21.90;38.99
29433;BME280;16405;53.964;13.448;2023-05-12T11:02:22;101779.41;;;22.16;39.53
29433;BME280;16405;53.964;13.448;2023-05-12T11:04:50;101783.81;;;22.51;39.07
29433;BME280;16405;53.964;13.448;2023-05-12T11:07:23;101786.19;;;22.88;39.01
29433;BME280;16405;53.964;13.448;2023-05-12T11:09:56;101789.75;;;22.77;39.81
29433;BME280;16405;53.964;13.448;2023-05-12T11:12:31;101773.78;;;22.42;39.56
29433;BME280;16405;53.964;13.448;2023-05-12T11:15:04;101764.97;;;22.73;40.41
29433;BME280;16405;53.964;13.448;2023-05-12T11:17:30;101774.66;;;22.53;39.96
29433;BME280;16405;53.964;13.448;2023-05-12T11:19:56;101775.41;;;22.44;37.94
29433;BME280;16405;53.964;13.448;2023-05-12T11:22:26;101778.41;;;22.73;38.09
29433;BME280;16405;53.964;13.448;2023-05-12T11:24:52;101786.91;;;22.90;38.75
29433;BME280;16405;53.964;13.448;2023-05-12T11:27:22;101789.59;;;23.01;37.87
29433;BME280;16405;53.964;13.448;2023-05-12T11:30:00;101802.84;;;23.46;37.56
29433;BME280;16405;53.964;13.448;2023-05-12T11:32:27;101813.31;;;23.61;37.71
29433;BME280;16405;53.964;13.448;2023-05-12T11:34:54;101813.44;;;23.27;37.04
29433;BME280;16405;53.964;13.448;2023-05-12T11:37:20;101813.84;;;23.43;38.35
29433;BME280;16405;53.964;13.448;2023-05-12T11:39:46;101809.47;;;23.42;38.14
29433;BME280;16405;53.964;13.448;2023-05-12T11:42:12;101819.91;;;23.57;36.88
29433;BME280;16405;53.964;13.448;2023-05-12T11:44:46;101807.28;;;23.36;36.78
29433;BME280;16405;53.964;13.448;2023-05-12T11:47:16;101816.75;;;23.19;37.29
29433;BME280;16405;53.964;13.448;2023-05-12T11:52:17;101810.31;;;22.99;37.60
29433;BME280;16405;53.964;13.448;2023-05-12T11:54:59;101818.38;;;23.43;36.92
29433;BME280;16405;53.964;13.448;2023-05-12T11:57:33;101827.59;;;23.61;37.19
29433;BME280;16405;53.964;13.448;2023-05-12T12:00:06;101832.66;;;23.97;36.38
29433;BME280;16405;53.964;13.448;2023-05-12T12:02:34;101825.66;;;23.84;36.26
29433;BME280;16405;53.964;13.448;2023-05-12T12:05:01;101825.06;;;24.02;36.82
29433;BME280;16405;53.964;13.448;2023-05-12T12:07:33;101825.09;;;23.48;35.91
29433;BME280;16405;53.964;13.448;2023-05-12T12:10:14;101826.38;;;23.22;36.20
29433;BME280;16405;53.964;13.448;2023-05-12T12:12:43;101830.91;;;23.21;35.96
29433;BME280;16405;53.964;13.448;2023-05-12T12:15:11;101826.19;;;23.02;35.20
29433;BME280;16405;53.964;13.448;2023-05-12T12:17:38;101822.50;;;23.14;35.68
29433;BME280;16405;53.964;13.448;2023-05-12T12:20:05;101825.97;;;22.94;36.10
29433;BME280;16405;53.964;13.448;2023-05-12T12:22:31;101823.03;;;22.97;35.81
29433;BME280;16405;53.964;13.448;2023-05-12T12:24:59;101826.97;;;22.70;34.81
29433;BME280;16405;53.964;13.448;2023-05-12T12:27:25;101825.75;;;22.52;35.09
29433;BME280;16405;53.964;13.448;2023-05-12T12:29:54;101831.34;;;22.83;35.90
29433;BME280;16405;53.964;13.448;2023-05-12T12:32:19;101827.56;;;22.74;34.75
29433;BME280;16405;53.964;13.448;2023-05-12T12:34:45;101828.56;;;22.73;35.04
29433;BME280;16405;53.964;13.448;2023-05-12T12:37:13;101830.13;;;22.76;35.69
29433;BME280;16405;53.964;13.448;2023-05-12T12:39:38;101835.84;;;22.82;35.47
29433;BME280;16405;53.964;13.448;2023-05-12T12:42:04;101836.09;;;22.90;35.77
29433;BME280;16405;53.964;13.448;2023-05-12T12:44:30;101829.63;;;22.93;35.24
29433;BME280;16405;53.964;13.448;2023-05-12T12:46:56;101827.53;;;22.97;36.37
29433;BME280;16405;53.964;13.448;2023-05-12T12:49:22;101831.38;;;22.60;35.40
29433;BME280;16405;53.964;13.448;2023-05-12T12:51:48;101825.47;;;23.11;36.98
29433;BME280;16405;53.964;13.448;2023-05-12T12:54:14;101824.34;;;23.14;37.25
29433;BME280;16405;53.964;13.448;2023-05-12T12:56:40;101827.81;;;22.82;37.08